createdAt,value
2017-12-19T00:01:39.627Z,26.09
2017-12-19T00:04:14.060Z,26.07
2017-12-19T00:06:47.630Z,26.13
2017-12-19T00:09:22.475Z,26.01
2017-12-19T00:11:58.398Z,26.01
2017-12-19T00:14:32.427Z,26.03
2017-12-19T00:17:07.148Z,25.98
2017-12-19T00:19:41.490Z,26.01
2017-12-19T00:22:25.782Z,26.02
2017-12-19T00:24:59.890Z,25.96
2017-12-19T00:27:36.627Z,25.93
2017-12-19T00:30:13.825Z,25.90
2017-12-19T00:32:47.477Z,25.91
2017-12-19T00:35:22.434Z,25.90
2017-12-19T00:37:57.036Z,25.83
2017-12-19T00:40:31.618Z,25.84
2017-12-19T00:43:05.428Z,25.87
2017-12-19T00:45:40.926Z,25.83
2017-12-19T00:48:15.012Z,25.86
2017-12-19T00:50:49.121Z,25.83
2017-12-19T00:53:23.525Z,25.85
2017-12-19T00:55:58.275Z,25.87
2017-12-19T00:58:33.149Z,25.85
2017-12-19T01:01:07.118Z,25.86
2017-12-19T01:03:41.009Z,25.85
2017-12-19T01:06:22.252Z,25.84
2017-12-19T01:08:56.519Z,25.78
2017-12-19T01:11:30.515Z,25.83
2017-12-19T01:14:04.996Z,25.88
2017-12-19T01:16:44.425Z,25.90
2017-12-19T01:19:20.689Z,25.86
2017-12-19T01:21:55.068Z,25.90
2017-12-19T01:27:14.095Z,25.94
2017-12-19T01:29:48.884Z,25.92
2017-12-19T01:32:23.856Z,25.98
2017-12-19T01:34:58.571Z,25.94
2017-12-19T01:37:33.914Z,25.90
2017-12-19T01:40:08.547Z,25.91
2017-12-19T01:42:50.769Z,25.85
2017-12-19T01:45:25.086Z,25.91
2017-12-19T01:48:01.787Z,25.90
2017-12-19T01:50:37.076Z,25.89
2017-12-19T01:53:11.517Z,25.82
2017-12-19T01:55:49.938Z,25.84
2017-12-19T01:58:26.626Z,25.85
2017-12-19T02:01:01.852Z,25.86
2017-12-19T02:03:36.795Z,25.92
2017-12-19T02:06:15.867Z,25.91
2017-12-19T02:08:51.353Z,25.83
2017-12-19T02:11:26.729Z,25.89
2017-12-19T02:14:01.082Z,25.91
2017-12-19T02:16:42.109Z,25.85
2017-12-19T02:19:16.688Z,25.88
2017-12-19T02:21:50.903Z,25.97
2017-12-19T02:24:25.550Z,25.86
2017-12-19T02:27:00.572Z,25.87
2017-12-19T02:29:35.443Z,25.93
2017-12-19T02:32:10.632Z,25.97
2017-12-19T02:34:46.057Z,25.94
2017-12-19T02:37:21.681Z,25.86
2017-12-19T02:39:55.913Z,25.88
2017-12-19T02:42:39.967Z,25.90
2017-12-19T02:45:16.961Z,25.96
2017-12-19T02:47:52.415Z,25.93
2017-12-19T02:50:28.132Z,25.95
2017-12-19T02:53:06.176Z,25.96
2017-12-19T02:55:46.406Z,25.93
2017-12-19T02:58:23.657Z,26.02
2017-12-19T03:00:58.126Z,25.99
2017-12-19T03:03:33.416Z,26.04
2017-12-19T03:06:07.901Z,26.03
2017-12-19T03:08:42.722Z,26.01
2017-12-19T03:11:17.970Z,26.06
2017-12-19T03:13:51.974Z,26.05
2017-12-19T03:16:27.232Z,26.08
2017-12-19T03:19:01.984Z,26.14
2017-12-19T03:21:35.699Z,26.21
2017-12-19T03:24:11.423Z,26.26
2017-12-19T03:26:46.264Z,26.29
2017-12-19T03:29:24.027Z,26.30
2017-12-19T03:31:59.626Z,26.21
2017-12-19T03:34:34.607Z,26.29
2017-12-19T03:37:08.907Z,26.31
2017-12-19T03:39:45.802Z,26.32
2017-12-19T03:42:21.514Z,26.40
2017-12-19T03:44:56.150Z,26.50
2017-12-19T03:47:31.771Z,26.60
2017-12-19T03:50:07.714Z,26.59
2017-12-19T03:52:42.682Z,26.88
2017-12-19T03:55:18.330Z,26.86
2017-12-19T03:57:52.695Z,26.95
2017-12-19T04:00:28.263Z,27.00
2017-12-19T04:03:03.351Z,27.04
2017-12-19T04:05:37.590Z,27.13
2017-12-19T04:08:12.680Z,27.19
2017-12-19T04:10:47.016Z,27.39
2017-12-19T04:13:22.477Z,27.54
2017-12-19T04:15:58.108Z,27.47
2017-12-19T04:18:35.115Z,27.60
2017-12-19T04:21:10.298Z,27.64
2017-12-19T04:23:45.440Z,27.67
2017-12-19T04:26:19.995Z,27.73
2017-12-19T04:28:54.680Z,27.97
2017-12-19T04:31:30.053Z,28.24
2017-12-19T04:34:05.660Z,28.26
2017-12-19T04:36:44.021Z,28.22
2017-12-19T04:39:19.045Z,28.36
2017-12-19T04:41:54.065Z,28.27
2017-12-19T04:44:28.728Z,28.38
2017-12-19T04:47:03.458Z,28.48
2017-12-19T04:49:39.393Z,28.59
2017-12-19T04:52:14.970Z,28.53
2017-12-19T04:54:50.325Z,28.65
2017-12-19T04:57:26.017Z,29.14
2017-12-19T05:00:02.839Z,29.13
2017-12-19T05:02:40.765Z,29.53
2017-12-19T05:05:16.469Z,29.70
2017-12-19T05:07:51.178Z,29.88
2017-12-19T05:13:22.406Z,29.82
2017-12-19T05:15:56.710Z,29.98
2017-12-19T05:18:31.622Z,30.17
2017-12-19T05:21:06.218Z,30.27
2017-12-19T05:23:40.263Z,30.29
2017-12-19T05:26:16.947Z,30.36
2017-12-19T05:28:53.493Z,30.51
2017-12-19T05:31:27.227Z,30.54
2017-12-19T05:34:01.293Z,30.50
2017-12-19T05:36:38.813Z,30.54
2017-12-19T05:39:13.330Z,30.59
2017-12-19T05:41:49.877Z,30.59
2017-12-19T05:44:25.246Z,30.64
2017-12-19T05:46:59.773Z,30.68
2017-12-19T05:49:36.578Z,30.73
2017-12-19T05:52:11.271Z,30.75
2017-12-19T05:54:45.472Z,30.79
2017-12-19T05:57:20.390Z,30.83
2017-12-19T05:59:55.055Z,30.83
2017-12-19T06:02:30.110Z,30.79
2017-12-19T06:05:04.839Z,30.88
2017-12-19T06:07:41.644Z,30.88
2017-12-19T06:10:16.669Z,30.91
2017-12-19T06:12:53.254Z,30.97
2017-12-19T06:15:27.959Z,30.92
2017-12-19T06:18:02.541Z,30.99
2017-12-19T06:20:37.552Z,31.05
2017-12-19T06:23:11.873Z,31.05
2017-12-19T06:25:46.623Z,31.13
2017-12-19T06:28:22.600Z,31.14
2017-12-19T06:30:57.923Z,31.15
2017-12-19T06:33:34.108Z,31.25
2017-12-19T06:36:08.457Z,31.25
2017-12-19T06:38:42.489Z,31.29
2017-12-19T06:41:16.524Z,31.31
2017-12-19T06:43:49.910Z,31.36
2017-12-19T06:46:24.010Z,31.38
2017-12-19T06:48:59.148Z,31.38
2017-12-19T06:51:34.006Z,31.32
2017-12-19T06:54:09.657Z,31.40
2017-12-19T06:56:43.898Z,31.44
2017-12-19T06:59:18.773Z,31.45
2017-12-19T07:01:54.505Z,31.49
2017-12-19T07:04:28.582Z,31.51
2017-12-19T07:07:02.805Z,31.52
2017-12-19T07:09:39.305Z,31.65
2017-12-19T07:12:13.429Z,31.62
2017-12-19T07:14:48.709Z,31.61
2017-12-19T07:17:30.612Z,31.60
2017-12-19T07:20:06.037Z,31.64
2017-12-19T07:22:41.990Z,31.63
2017-12-19T07:25:17.140Z,31.71
2017-12-19T07:27:51.920Z,31.67
2017-12-19T07:30:28.447Z,31.74
2017-12-19T07:33:03.494Z,31.76
2017-12-19T07:35:38.710Z,31.75
2017-12-19T07:38:12.747Z,31.85
2017-12-19T07:40:47.651Z,31.87
2017-12-19T07:43:22.198Z,31.79
2017-12-19T07:45:57.768Z,31.87
2017-12-19T07:48:31.885Z,31.89
2017-12-19T07:51:06.426Z,31.90
2017-12-19T07:53:41.410Z,31.90
2017-12-19T07:56:22.937Z,31.91
2017-12-19T07:58:57.488Z,31.95
2017-12-19T08:01:33.188Z,31.93
2017-12-19T08:04:07.266Z,31.99
2017-12-19T08:06:43.372Z,32.04
2017-12-19T08:09:17.988Z,32.02
2017-12-19T08:11:51.985Z,32.06
2017-12-19T08:14:27.035Z,32.09
2017-12-19T08:17:01.413Z,32.03
2017-12-19T08:19:48.876Z,31.99
2017-12-19T08:22:23.053Z,31.99
2017-12-19T08:24:57.116Z,32.02
2017-12-19T08:27:31.005Z,32.04
2017-12-19T08:30:07.554Z,31.86
2017-12-19T08:32:42.037Z,31.75
2017-12-19T08:35:16.369Z,31.54
2017-12-19T08:37:51.263Z,31.27
2017-12-19T08:40:25.647Z,30.91
2017-12-19T08:43:00.267Z,30.51
2017-12-19T08:45:35.616Z,30.35
2017-12-19T08:48:16.949Z,30.25
2017-12-19T08:50:52.602Z,30.12
2017-12-19T08:53:27.403Z,29.87
2017-12-19T08:56:05.452Z,29.77
2017-12-19T08:58:40.544Z,29.65
2017-12-19T09:01:16.552Z,29.54
2017-12-19T09:03:50.567Z,29.42
2017-12-19T09:06:25.196Z,29.34
2017-12-19T09:09:00.148Z,29.26
2017-12-19T09:11:34.782Z,29.14
2017-12-19T09:14:10.076Z,29.07
2017-12-19T09:16:44.344Z,29.02
2017-12-19T09:19:18.358Z,28.92
2017-12-19T09:21:52.987Z,28.86
2017-12-19T09:24:30.010Z,28.84
2017-12-19T09:27:05.022Z,28.77
2017-12-19T09:29:39.007Z,28.73
2017-12-19T09:32:14.888Z,28.71
2017-12-19T09:34:50.212Z,28.65
2017-12-19T09:37:24.512Z,28.67
2017-12-19T09:39:59.733Z,28.62
2017-12-19T09:42:35.036Z,28.64
2017-12-19T09:45:09.733Z,28.56
2017-12-19T09:47:46.156Z,28.51
2017-12-19T09:50:30.110Z,28.49
2017-12-19T09:53:04.647Z,28.52
2017-12-19T09:55:40.070Z,28.50
2017-12-19T09:58:16.005Z,28.40
2017-12-19T10:00:50.065Z,28.36
2017-12-19T10:03:24.639Z,28.34
2017-12-19T10:05:58.628Z,28.32
2017-12-19T10:08:35.032Z,28.38
2017-12-19T10:11:09.764Z,28.43
2017-12-19T10:13:43.799Z,28.39
2017-12-19T10:16:21.979Z,28.39
2017-12-19T10:18:57.676Z,28.45
2017-12-19T10:21:34.144Z,28.42
2017-12-19T10:24:09.473Z,28.41
2017-12-19T10:26:44.629Z,28.39
2017-12-19T10:29:19.639Z,28.39
2017-12-19T10:31:53.541Z,28.48
2017-12-19T10:34:29.892Z,28.44
2017-12-19T10:37:05.932Z,28.49
2017-12-19T10:39:42.777Z,28.49
2017-12-19T10:42:17.160Z,28.44
2017-12-19T10:44:51.445Z,28.51
2017-12-19T10:47:28.079Z,28.50
2017-12-19T10:50:02.808Z,28.53
2017-12-19T10:52:44.191Z,28.54
2017-12-19T10:55:19.581Z,28.54
2017-12-19T10:57:57.582Z,28.55
2017-12-19T11:00:41.884Z,28.55
2017-12-19T11:03:16.250Z,28.55
2017-12-19T11:05:51.882Z,28.57
2017-12-19T11:08:27.234Z,28.59
2017-12-19T11:11:06.135Z,28.56
2017-12-19T11:13:42.783Z,28.54
2017-12-19T11:16:20.029Z,28.51
2017-12-19T11:18:57.509Z,28.50
2017-12-19T11:21:37.744Z,28.55
2017-12-19T11:24:18.847Z,28.56
2017-12-19T11:26:53.409Z,28.73
2017-12-19T11:29:34.189Z,28.88
2017-12-19T11:32:21.311Z,29.09
2017-12-19T11:34:57.216Z,29.12
2017-12-19T11:37:38.722Z,29.16
2017-12-19T11:40:15.033Z,29.09
2017-12-19T11:42:50.152Z,29.03
2017-12-19T11:45:28.782Z,29.02
2017-12-19T11:48:14.869Z,29.05
2017-12-19T11:50:51.170Z,28.97
2017-12-19T11:53:33.894Z,28.92
2017-12-19T11:56:21.858Z,28.82
2017-12-19T11:58:58.975Z,28.72
2017-12-19T12:01:38.804Z,28.74
2017-12-19T12:04:16.536Z,28.57
2017-12-19T12:06:54.498Z,28.59
2017-12-19T12:09:35.714Z,28.55
2017-12-19T12:12:14.672Z,28.48
2017-12-19T12:14:52.172Z,28.45
2017-12-19T12:17:30.941Z,28.40
2017-12-19T12:20:10.739Z,28.36
2017-12-19T12:22:50.576Z,28.39
2017-12-19T12:28:18.378Z,28.35
2017-12-19T12:31:05.135Z,28.37
2017-12-19T12:33:52.049Z,28.25
2017-12-19T12:36:40.612Z,28.25
2017-12-19T12:42:15.620Z,28.32
2017-12-19T12:45:04.982Z,28.30
2017-12-19T12:47:49.358Z,28.19
2017-12-19T12:50:33.640Z,28.10
2017-12-19T12:53:17.327Z,28.04
2017-12-19T12:55:59.664Z,27.81
2017-12-19T12:58:40.317Z,27.75
2017-12-19T13:01:20.509Z,27.74
2017-12-19T13:04:05.604Z,27.72
2017-12-19T13:06:53.249Z,27.74
2017-12-19T13:09:46.754Z,27.77
2017-12-19T13:12:32.612Z,27.82
2017-12-19T13:15:14.520Z,27.83
2017-12-19T13:17:59.609Z,27.91
2017-12-19T13:20:44.629Z,28.02
2017-12-19T13:23:47.217Z,28.13
2017-12-19T13:26:37.787Z,28.18
2017-12-19T13:29:24.505Z,28.28
2017-12-19T13:35:06.193Z,28.14
2017-12-19T13:37:54.369Z,28.13
2017-12-19T13:40:41.788Z,28.17
2017-12-19T13:43:25.307Z,28.20
2017-12-19T13:46:10.341Z,28.14
2017-12-19T13:48:55.646Z,28.09
2017-12-19T13:51:43.364Z,28.02
2017-12-19T13:54:25.456Z,28.00
2017-12-19T13:57:11.770Z,28.01
2017-12-19T14:00:11.306Z,27.97
2017-12-19T14:03:05.489Z,27.92
2017-12-19T14:05:48.082Z,28.00
2017-12-19T14:08:35.002Z,28.07
2017-12-19T14:11:18.985Z,28.14
2017-12-19T14:14:02.786Z,28.09
2017-12-19T14:16:56.422Z,28.00
2017-12-19T14:19:48.503Z,27.98
2017-12-19T14:22:28.400Z,27.86
2017-12-19T14:25:18.996Z,27.85
2017-12-19T14:28:02.910Z,27.81
2017-12-19T14:30:53.714Z,27.83
2017-12-19T14:33:40.238Z,27.86
2017-12-19T14:36:27.033Z,27.97
2017-12-19T14:39:17.043Z,27.92
2017-12-19T14:41:59.592Z,27.87
2017-12-19T14:44:59.403Z,27.86
2017-12-19T14:47:58.519Z,27.82
2017-12-19T14:50:47.419Z,27.90
2017-12-19T14:53:30.425Z,27.81
2017-12-19T14:56:23.090Z,27.79
2017-12-19T14:59:05.271Z,27.74
2017-12-19T15:02:05.495Z,28.09
2017-12-19T15:04:49.969Z,27.91
2017-12-19T15:07:43.901Z,27.89
2017-12-19T15:10:27.758Z,27.83
2017-12-19T15:13:12.419Z,27.86
2017-12-19T15:16:08.950Z,27.97
2017-12-19T15:18:55.813Z,27.89
2017-12-19T15:21:39.640Z,27.92
2017-12-19T15:24:28.566Z,28.00
2017-12-19T15:30:26.836Z,27.91
2017-12-19T15:33:16.823Z,27.92
2017-12-19T15:35:59.345Z,27.86
2017-12-19T15:38:57.790Z,28.14
2017-12-19T15:41:52.148Z,28.06
2017-12-19T15:44:45.398Z,28.10
2017-12-19T15:47:40.103Z,28.00
2017-12-19T15:53:36.333Z,27.99
2017-12-19T15:56:22.266Z,28.00
2017-12-19T15:59:06.387Z,28.00
2017-12-19T16:01:54.840Z,27.90
2017-12-19T16:04:42.342Z,28.08
2017-12-19T16:07:26.958Z,28.20
2017-12-19T16:13:03.262Z,27.87
2017-12-19T16:15:59.457Z,28.14
2017-12-19T16:19:09.857Z,28.32
2017-12-19T16:22:10.604Z,28.50
2017-12-19T16:25:15.417Z,28.52
2017-12-19T16:28:14.204Z,28.46
2017-12-19T16:31:05.304Z,28.43
2017-12-19T16:33:46.990Z,28.23
2017-12-19T16:36:28.782Z,28.31
2017-12-19T16:39:13.387Z,28.26
2017-12-19T16:42:01.784Z,28.23
2017-12-19T16:44:45.470Z,28.20
2017-12-19T16:47:31.537Z,28.14
2017-12-19T16:50:14.813Z,28.13
2017-12-19T16:53:01.257Z,28.17
2017-12-19T16:55:47.249Z,28.36
2017-12-19T16:58:32.990Z,28.29
2017-12-19T17:01:16.797Z,28.05
2017-12-19T17:03:58.445Z,28.03
2017-12-19T17:06:41.292Z,28.02
2017-12-19T17:09:28.798Z,28.03
2017-12-19T17:12:09.765Z,28.01
2017-12-19T17:15:05.577Z,28.00
2017-12-19T17:17:46.076Z,27.99
2017-12-19T17:20:40.345Z,27.93
2017-12-19T17:26:31.854Z,27.81
2017-12-19T17:29:19.084Z,27.77
2017-12-19T17:32:08.616Z,27.73
2017-12-19T17:34:52.585Z,27.73
2017-12-19T17:37:41.024Z,27.76
2017-12-19T17:40:30.079Z,27.76
2017-12-19T17:43:17.251Z,27.72
2017-12-19T17:46:05.182Z,27.57
2017-12-19T17:48:50.221Z,27.61
2017-12-19T17:51:37.959Z,27.48
2017-12-19T17:54:21.049Z,27.51
2017-12-19T17:57:07.408Z,27.42
2017-12-19T17:59:53.708Z,27.34
2017-12-19T18:02:39.006Z,27.42
2017-12-19T18:05:41.798Z,27.40
2017-12-19T18:08:27.395Z,27.38
2017-12-19T18:11:16.448Z,27.35
2017-12-19T18:14:06.852Z,27.20
2017-12-19T18:17:01.824Z,27.22
2017-12-19T18:19:50.897Z,27.24
2017-12-19T18:22:38.223Z,27.24
2017-12-19T18:25:24.316Z,27.14
2017-12-19T18:28:15.120Z,27.42
2017-12-19T18:31:08.251Z,26.49
2017-12-19T18:36:49.270Z,26.95
2017-12-19T18:39:41.515Z,27.08
2017-12-19T18:42:26.675Z,26.90
2017-12-19T18:45:31.679Z,26.83
2017-12-19T18:48:14.908Z,26.96
2017-12-19T18:50:51.340Z,26.89
2017-12-19T18:53:25.335Z,26.66
2017-12-19T18:55:59.028Z,26.75
2017-12-19T18:58:34.218Z,26.69
2017-12-19T19:01:07.875Z,26.62
2017-12-19T19:03:41.714Z,26.55
2017-12-19T19:06:15.860Z,26.52
2017-12-19T19:08:49.414Z,26.58
2017-12-19T19:11:23.188Z,26.61
2017-12-19T19:13:57.304Z,25.83
2017-12-19T19:16:31.123Z,25.95
2017-12-19T19:19:05.768Z,26.06
2017-12-19T19:21:37.850Z,26.31
2017-12-19T19:24:09.868Z,26.34
2017-12-19T19:26:41.893Z,26.52
2017-12-19T19:29:14.087Z,26.57
2017-12-19T19:31:47.151Z,26.69
2017-12-19T19:34:21.802Z,26.63
2017-12-19T19:36:54.092Z,26.81
2017-12-19T19:39:27.857Z,26.93
2017-12-19T19:42:01.495Z,26.81
2017-12-19T19:44:35.644Z,26.84
2017-12-19T19:47:09.403Z,26.85
2017-12-19T19:49:41.317Z,26.83
2017-12-19T19:52:14.992Z,26.79
2017-12-19T19:54:48.688Z,26.84
2017-12-19T19:57:22.772Z,26.89
2017-12-19T19:59:56.672Z,26.89
2017-12-19T20:02:30.432Z,26.91
2017-12-19T20:05:04.159Z,26.92
2017-12-19T20:07:37.811Z,26.90
2017-12-19T20:10:11.528Z,26.90
2017-12-19T20:12:45.160Z,26.89
2017-12-19T20:15:19.407Z,26.90
2017-12-19T20:17:51.394Z,26.91
2017-12-19T20:20:25.411Z,26.91
2017-12-19T20:22:58.924Z,26.92
2017-12-19T20:25:32.670Z,26.91
2017-12-19T20:28:06.879Z,26.96
2017-12-19T20:30:40.979Z,26.91
2017-12-19T20:33:15.715Z,26.92
2017-12-19T20:35:49.522Z,26.95
2017-12-19T20:38:23.387Z,26.89
2017-12-19T20:40:57.039Z,26.95
2017-12-19T20:43:30.807Z,26.97
2017-12-19T20:46:06.562Z,26.91
2017-12-19T20:48:38.867Z,26.91
2017-12-19T20:51:13.587Z,26.86
2017-12-19T20:53:47.328Z,26.89
2017-12-19T20:56:20.890Z,26.88
2017-12-19T20:58:55.512Z,26.85
2017-12-19T21:01:29.621Z,26.89
2017-12-19T21:04:03.412Z,26.98
2017-12-19T21:06:37.211Z,26.97
2017-12-19T21:09:11.011Z,26.86
2017-12-19T21:11:45.576Z,26.81
2017-12-19T21:14:19.256Z,26.87
2017-12-19T21:16:53.477Z,26.83
2017-12-19T21:19:27.321Z,26.88
2017-12-19T21:22:01.019Z,26.86
2017-12-19T21:24:34.786Z,27.33
2017-12-19T21:27:09.292Z,27.68
2017-12-19T21:29:43.924Z,27.51
2017-12-19T21:32:15.998Z,27.31
2017-12-19T21:34:49.668Z,26.91
2017-12-19T21:37:24.234Z,27.02
2017-12-19T21:39:57.972Z,27.07
2017-12-19T21:42:31.572Z,27.13
2017-12-19T21:45:06.726Z,27.14
2017-12-19T21:47:40.959Z,27.26
2017-12-19T21:50:14.484Z,27.34
2017-12-19T21:52:48.088Z,27.33
2017-12-19T21:55:21.749Z,27.37
2017-12-19T21:57:55.586Z,27.36
2017-12-19T22:00:29.268Z,27.38
2017-12-19T22:03:03.423Z,27.49
2017-12-19T22:05:36.957Z,27.54
2017-12-19T22:08:11.391Z,27.53
2017-12-19T22:10:45.407Z,27.53
2017-12-19T22:13:19.780Z,27.61
2017-12-19T22:15:53.644Z,27.52
2017-12-19T22:18:27.398Z,27.46
2017-12-19T22:21:01.105Z,27.51
2017-12-19T22:23:35.782Z,27.74
2017-12-19T22:26:09.841Z,27.78
2017-12-19T22:28:43.675Z,27.73
2017-12-19T22:31:17.265Z,27.73
2017-12-19T22:33:50.790Z,27.87
2017-12-19T22:36:24.932Z,27.80
2017-12-19T22:38:58.638Z,27.76
2017-12-19T22:41:32.491Z,27.66
2017-12-19T22:44:06.565Z,27.67
2017-12-19T22:46:40.300Z,27.80
2017-12-19T22:49:14.668Z,27.78
2017-12-19T22:51:48.490Z,27.70
2017-12-19T22:54:22.200Z,27.77
2017-12-19T22:56:56.289Z,27.72
2017-12-19T22:59:29.858Z,27.99
2017-12-19T23:02:03.472Z,27.96
2017-12-19T23:04:36.980Z,28.16
2017-12-19T23:07:10.681Z,28.15
2017-12-19T23:09:44.275Z,28.11
2017-12-19T23:12:17.876Z,28.04
2017-12-19T23:14:51.990Z,27.97
2017-12-19T23:17:27.334Z,27.95
2017-12-19T23:20:01.173Z,27.92
2017-12-19T23:22:34.891Z,27.93
2017-12-19T23:25:08.465Z,27.84
2017-12-19T23:27:42.221Z,27.83
2017-12-19T23:30:16.191Z,27.81
2017-12-19T23:32:50.011Z,27.77
2017-12-19T23:35:24.098Z,27.77
2017-12-19T23:37:58.023Z,27.78
2017-12-19T23:40:31.717Z,27.83
2017-12-19T23:43:05.770Z,27.77
2017-12-19T23:45:39.383Z,27.72
2017-12-19T23:48:14.048Z,27.72
2017-12-19T23:50:47.666Z,27.73
2017-12-19T23:53:21.484Z,27.69
2017-12-19T23:55:55.090Z,27.54
2017-12-19T23:58:29.098Z,27.59
